Terminal Aerodrome Forecast
Issued by NWS Mt. Holly, NJ

Home | Current Version | Previous Version | Text Only | Print | Product List | Glossary On
Versions: 1 2 3 4 5 6 7 8 9 10 11 12 13 14
000
FTUS41 KPHI 301100
TAFACY
TAF
KACY 301134Z 3012/3112 VRB03KT P6SM SCT040
     FM301400 16010KT P6SM SCT040
     FM310200 19005KT P6SM SCT050 BKN150
     FM311000 19005KT 5SM BR BKN020=

USA.gov is the U.S. government's official web portal to all federal, state and local government web resources and services.